KGUS/GUS METAR and TAF weather

Enter ICAO airport designator
Station Type Date Time Source
KGUS METAR 2019/08/25 12:56 UTC NOAA

KGUS 251256Z AUTO 08004KT 10SM CLR 16/14 A3015 RMK AO2 SLP211 T01570144 $


Station Type Date Time Source
KGUS Decoded METAR 2019/08/25 12:56 UTC NOAA

Station name not available
Aug 25, 2019 - 08:56 AM EDT / 2019.08.25 1256 UTC
Wind: from the E (080 degrees) at 5 MPH (4 KT):0
Visibility: 10 mile(s):0
Sky conditions: clear
Temperature: 60.3 F (15.7 C)
Dew Point: 57.9 F (14.4 C)
Relative Humidity: 91%
Pressure (altimeter): 30.15 in. Hg (1020 hPa)
ob: KGUS 251256Z AUTO 08004KT 10SM CLR 16/14 A3015 RMK AO2 SLP211 T01570144
cycle: 13

Station Type Date Time Source
KGUS TAF 2019/08/25 11:06 UTC NOAA

TAF TAF KGUS 251100Z 2511/2617 08006KT 9999 SKC QNH3013INS
BECMG 2514/2515 11012KT 9999 FEW200 QNH2999INS
BECMG 2522/2523 11006KT 9999 BKN040 QNH2996INS
BECMG 2605/2606 12006KT 9999 BKN025 QNH2993INS TX25/2518Z TN12/2512Z

Example: see airport list